Airfield :







YOU CAN JOIN US ON...

 
LOGIN :

Register | Disclaimer

   EN    FR    IT 

 









Legend :    VFR   Marginal VFR   IFR   Intensive IFR   Very Intensive IFR
Visi :
Ceiling :
>= 8 km
>= 3000ft
5 to 8 km
1000 to 3000 ft
1500m to 5 km
500 to 1000 ft
800 to 1500m
200 to 500 ft
< 800m
< 200 ft
Symbols :   Thunderstorms  Fog  Heavy snow  Heavy precipitations  Wind > 20 kt






- Airport Elevation : 215 ft
- IATA code : XGR


CYLU - Kangiqsualujjuaq (Georges River)

CURRENT METAR :
  • 232100Z 29017G28KT 1SM BLSN BKN010 OVC014 M16/M18 A2978 RMK ST7SC1 SLP094

EXPIRED METARs :
  • 232000Z 30023G28KT 3/4SM BLSN BKN010 OVC013 M15/M17 A2973 RMK ST7ST1 SLP076
  • 231946Z 30021G27KT 5/8SM BLSN OVC010 M14/M17 A2972 RMK ST8 SLP072
  • 231900Z 32021G29KT 1SM -SN BLSN BKN010 OVC012 M14/M16 A2968 RMK ST7ST1 PRESRR SLP057

TAF N/A



MET'MAP, your aeronautical weather chart ! - Copyright ORBIFLY December 2007 - Disclaimer

ORBIFLY MET'MAP TEAM :

Programming & Development : Alexandra Zaïnal
Concept & original design : Baudouin d'Aumeries
Assistance for programming : Marc-Olivier Méhu
Technical & hardware support : Manuel Goepfert

Contact : metmap@orbifly.com




SOURCES & CREDITS :

   NOAA